Time;durP1;ratioP1;P1;durP2;ratioP2;P2;SDS_P1;SDS_P2;PMS_P1;PMS_P2;Temp;Humidity;BMP_temperature;BMP_pressure;BME280_temperature;BME280_humidity;BME280_pressure;Samples;Min_cycle;Max_cycle;Signal;HPM_P1;HPM_P2
2022/03/03 00:00:09;;;;;;;11.75;7.70;;;-0.30;66.70;;;;;;4968483;28;20039;-78
2022/03/03 00:02:40;;;;;;;17.30;8.65;;;-0.30;66.90;;;;;;4955357;28;20042;-80
2022/03/03 00:05:07;;;;;;;13.50;7.68;;;-0.30;67.10;;;;;;4943933;28;20050;-78
2022/03/03 00:07:33;;;;;;;12.60;7.53;;;-0.30;67.00;;;;;;4952080;28;20029;-77
2022/03/03 00:09:58;;;;;;;14.32;7.93;;;-0.30;67.10;;;;;;4967452;28;20031;-78
2022/03/03 00:12:24;;;;;;;13.43;7.68;;;-0.30;67.20;;;;;;4953504;28;20086;-78
2022/03/03 00:14:50;;;;;;;15.00;7.55;;;-0.30;67.30;;;;;;4959323;28;20042;-77
2022/03/03 00:17:15;;;;;;;14.82;7.63;;;-0.30;67.30;;;;;;4965472;28;20034;-78
2022/03/03 00:19:42;;;;;;;15.07;8.20;;;-0.30;67.40;;;;;;4984332;28;20042;-78
2022/03/03 00:22:08;;;;;;;11.85;7.00;;;-0.40;67.40;;;;;;4986663;28;20034;-78
2022/03/03 00:24:34;;;;;;;13.75;7.93;;;-0.40;67.40;;;;;;4960782;28;20023;-78
2022/03/03 00:26:59;;;;;;;15.45;7.72;;;-0.40;67.60;;;;;;4957699;28;20043;-77
2022/03/03 00:29:25;;;;;;;17.33;7.75;;;-0.40;67.60;;;;;;4972179;28;20031;-77
2022/03/03 00:31:50;;;;;;;12.77;6.93;;;-0.40;67.70;;;;;;4942850;28;20035;-78
2022/03/03 00:34:16;;;;;;;18.00;8.45;;;-0.40;67.70;;;;;;4980967;28;20031;-78
2022/03/03 00:36:41;;;;;;;16.65;8.45;;;-0.50;67.60;;;;;;4963815;28;20079;-78
2022/03/03 00:39:07;;;;;;;13.43;6.63;;;-0.50;67.60;;;;;;4953953;28;20036;-78
2022/03/03 00:41:33;;;;;;;19.30;8.50;;;-0.50;67.70;;;;;;4967621;28;20043;-78
2022/03/03 00:43:58;;;;;;;15.15;8.13;;;-0.60;67.70;;;;;;4967299;28;20074;-78
2022/03/03 00:46:25;;;;;;;12.70;7.93;;;-0.60;67.90;;;;;;4948308;28;20099;-77
2022/03/03 00:48:51;;;;;;;15.85;7.78;;;-0.70;67.90;;;;;;4968870;28;20039;-79
2022/03/03 00:51:17;;;;;;;12.73;7.75;;;-0.70;67.90;;;;;;4970254;28;20054;-78
2022/03/03 00:53:42;;;;;;;15.10;7.88;;;-0.80;67.80;;;;;;4981640;28;20082;-78
2022/03/03 00:56:08;;;;;;;15.35;8.32;;;-0.80;68.00;;;;;;4967535;28;20070;-78
2022/03/03 00:58:33;;;;;;;15.70;7.68;;;-0.80;68.10;;;;;;4983417;28;20035;-78
2022/03/03 01:01:01;;;;;;;14.35;7.82;;;-0.90;68.00;;;;;;4969664;28;20257;-78
2022/03/03 01:03:27;;;;;;;16.27;7.95;;;-0.90;68.20;;;;;;4970863;28;20110;-77
2022/03/03 01:05:52;;;;;;;13.85;7.95;;;-0.90;68.30;;;;;;4983881;28;20058;-78
2022/03/03 01:08:18;;;;;;;20.33;7.35;;;-1.00;68.30;;;;;;4957537;28;20050;-77
2022/03/03 01:10:43;;;;;;;12.68;7.63;;;-1.00;68.40;;;;;;4957539;28;20098;-77
2022/03/03 01:13:09;;;;;;;12.52;6.93;;;-1.00;68.60;;;;;;4981692;28;20106;-78
2022/03/03 01:15:34;;;;;;;18.05;9.40;;;-1.00;68.70;;;;;;4969354;28;20355;-78
2022/03/03 01:18:00;;;;;;;13.27;7.80;;;-1.00;68.80;;;;;;4985887;28;20054;-77
2022/03/03 01:20:27;;;;;;;12.43;7.18;;;-1.10;68.80;;;;;;4968567;28;20047;-77
2022/03/03 01:22:53;;;;;;;15.93;8.45;;;-1.10;68.80;;;;;;4958669;28;20047;-77
2022/03/03 01:25:19;;;;;;;13.65;7.93;;;-1.10;68.90;;;;;;4971396;28;20105;-78
2022/03/03 01:27:45;;;;;;;14.40;7.28;;;-1.10;69.00;;;;;;4959996;28;20036;-78
2022/03/03 01:30:11;;;;;;;13.57;7.68;;;-1.10;69.10;;;;;;4962584;28;20047;-77
2022/03/03 01:32:37;;;;;;;13.02;6.97;;;-1.10;69.10;;;;;;4958063;28;20088;-77
2022/03/03 01:35:03;;;;;;;13.82;7.85;;;-1.20;69.00;;;;;;4968180;28;20057;-76
2022/03/03 01:37:28;;;;;;;13.07;7.25;;;-1.20;69.90;;;;;;4961878;28;20019;-77
2022/03/03 01:39:54;;;;;;;15.95;7.88;;;-1.20;69.20;;;;;;4949553;28;20086;-76
2022/03/03 01:42:19;;;;;;;14.65;8.02;;;-1.20;69.30;;;;;;4968842;28;20043;-76
2022/03/03 01:44:45;;;;;;;16.92;7.63;;;-1.20;69.30;;;;;;4968392;28;20031;-77
2022/03/03 01:47:22;;;;;;;14.43;7.93;;;-1.30;69.20;;;;;;4965544;28;20050;-77
2022/03/03 01:49:48;;;;;;;13.75;8.35;;;-1.30;69.60;;;;;;4959183;28;20093;-77
2022/03/03 01:52:13;;;;;;;15.90;8.18;;;-1.30;69.40;;;;;;4973029;28;20086;-77
2022/03/03 01:54:39;;;;;;;12.77;7.35;;;-1.30;69.60;;;;;;4946769;28;20038;-77
2022/03/03 01:57:06;;;;;;;13.60;8.32;;;-1.30;69.70;;;;;;4958707;28;20043;-78
2022/03/03 01:59:31;;;;;;;14.02;7.93;;;-1.30;69.60;;;;;;4955050;28;20038;-76
2022/03/03 02:01:57;;;;;;;15.75;7.95;;;-1.30;69.60;;;;;;4948911;28;20170;-77
2022/03/03 02:04:23;;;;;;;14.38;8.07;;;-1.30;69.60;;;;;;4966056;28;20046;-77
2022/03/03 02:06:48;;;;;;;17.98;8.38;;;-1.40;69.50;;;;;;4966653;28;20043;-78
2022/03/03 02:09:14;;;;;;;15.35;8.05;;;-1.40;69.60;;;;;;4965061;28;20037;-77
2022/03/03 02:11:39;;;;;;;17.27;8.05;;;-1.40;69.80;;;;;;4962998;28;20046;-76
2022/03/03 02:14:05;;;;;;;15.15;8.68;;;-1.40;69.80;;;;;;4972666;28;20042;-78
2022/03/03 02:16:30;;;;;;;15.15;7.82;;;-1.50;69.80;;;;;;4969254;28;20038;-77
2022/03/03 02:18:56;;;;;;;14.85;7.65;;;-1.50;69.80;;;;;;4965232;28;20038;-77
2022/03/03 02:21:22;;;;;;;14.98;7.88;;;-1.50;69.70;;;;;;4968358;28;20063;-77
2022/03/03 02:23:48;;;;;;;12.65;7.65;;;-1.60;69.80;;;;;;4955765;28;20031;-77
2022/03/03 02:26:18;;;;;;;15.85;7.28;;;-1.60;70.00;;;;;;4969225;28;20038;-76
2022/03/03 02:28:44;;;;;;;15.65;8.10;;;-1.60;70.20;;;;;;4982784;28;20269;-77
2022/03/03 02:31:09;;;;;;;14.20;7.38;;;-1.60;70.20;;;;;;4957683;28;20619;-76
2022/03/03 02:33:35;;;;;;;14.27;7.50;;;-1.60;70.40;;;;;;4978967;28;20143;-75
2022/03/03 02:36:15;;;;;;;17.58;8.63;;;-1.60;70.40;;;;;;4969542;28;20035;-77
2022/03/03 02:38:40;;;;;;;14.10;8.48;;;-1.60;70.70;;;;;;4957649;28;20093;-77
2022/03/03 02:41:06;;;;;;;14.82;7.88;;;-1.70;70.30;;;;;;4961943;28;20118;-77
2022/03/03 02:43:31;;;;;;;13.63;7.65;;;-1.70;70.30;;;;;;4946775;28;20055;-78
2022/03/03 02:45:57;;;;;;;15.13;8.43;;;-1.70;70.30;;;;;;4951360;28;20034;-77
2022/03/03 02:48:22;;;;;;;15.70;8.02;;;-1.80;70.40;;;;;;4963180;28;20476;-77
2022/03/03 02:50:48;;;;;;;13.30;7.43;;;-1.80;70.50;;;;;;4965849;28;20035;-77
2022/03/03 02:53:13;;;;;;;15.85;8.70;;;-1.80;70.60;;;;;;4959408;28;20026;-77
2022/03/03 02:55:39;;;;;;;13.82;7.45;;;-1.80;70.70;;;;;;4961905;28;20049;-77
2022/03/03 02:58:05;;;;;;;13.82;7.90;;;-1.80;70.70;;;;;;4941823;28;20039;-78
2022/03/03 03:00:38;;;;;;;14.00;7.90;;;-1.80;70.70;;;;;;4938060;28;20573;-77
2022/03/03 03:03:04;;;;;;;14.30;7.93;;;-1.90;70.80;;;;;;4968555;28;20035;-77
2022/03/03 03:05:29;;;;;;;15.00;8.55;;;-1.90;70.80;;;;;;4954938;28;20058;-78
2022/03/03 03:07:55;;;;;;;14.05;8.38;;;-1.90;70.90;;;;;;4960211;28;20031;-77
2022/03/03 03:10:20;;;;;;;15.30;8.05;;;-1.90;71.00;;;;;;4941052;28;20125;-77
2022/03/03 03:12:46;;;;;;;12.68;7.30;;;-1.90;71.10;;;;;;4949637;28;20051;-78
2022/03/03 03:15:12;;;;;;;17.75;7.72;;;-1.90;70.40;;;;;;4952254;28;20039;-77
2022/03/03 03:17:37;;;;;;;15.88;8.27;;;-1.90;71.10;;;;;;4967302;28;20043;-77
2022/03/03 03:20:06;;;;;;;15.77;8.60;;;-2.00;71.20;;;;;;4977159;28;20071;-77
2022/03/03 03:22:32;;;;;;;14.55;7.97;;;-2.00;71.20;;;;;;4964114;28;20061;-77
2022/03/03 03:24:58;;;;;;;16.42;8.65;;;-2.00;71.20;;;;;;4950891;28;20027;-77
2022/03/03 03:27:23;;;;;;;16.92;8.80;;;-2.00;71.20;;;;;;4965912;28;20046;-77
2022/03/03 03:29:49;;;;;;;15.85;8.00;;;-2.00;71.30;;;;;;4964662;28;20048;-77
2022/03/03 03:32:14;;;;;;;16.38;7.85;;;-2.00;71.30;;;;;;4961382;28;20041;-76
2022/03/03 03:34:40;;;;;;;13.50;7.97;;;-2.00;72.30;;;;;;4982932;28;20039;-78
2022/03/03 03:37:05;;;;;;;14.50;7.63;;;-2.00;71.50;;;;;;4945973;28;20043;-76
2022/03/03 03:39:31;;;;;;;15.55;7.97;;;-2.10;71.40;;;;;;4971621;28;20020;-77
2022/03/03 03:41:56;;;;;;;13.52;8.00;;;-2.10;71.50;;;;;;4945988;28;20065;-76
2022/03/03 03:44:22;;;;;;;19.27;8.68;;;-2.10;71.50;;;;;;4981903;28;20054;-77
2022/03/03 03:46:47;;;;;;;14.70;7.85;;;-2.10;71.60;;;;;;4966398;28;20178;-77
2022/03/03 03:49:13;;;;;;;16.60;8.25;;;-2.10;71.60;;;;;;4971440;28;20038;-77
2022/03/03 03:51:38;;;;;;;14.68;8.02;;;-2.10;71.60;;;;;;4966794;28;20070;-78
2022/03/03 03:54:04;;;;;;;13.88;7.95;;;-2.20;71.60;;;;;;4968973;28;20047;-77
2022/03/03 03:56:30;;;;;;;12.13;7.35;;;-2.20;71.70;;;;;;4972119;28;20069;-77
2022/03/03 03:58:55;;;;;;;14.13;8.05;;;-2.20;71.70;;;;;;4976415;28;20051;-77
2022/03/03 04:01:21;;;;;;;16.35;7.80;;;-2.20;71.80;;;;;;4984374;28;20755;-77
2022/03/03 04:03:47;;;;;;;13.13;7.22;;;-2.30;71.60;;;;;;4968531;28;20034;-77
2022/03/03 04:06:12;;;;;;;13.68;7.47;;;-2.40;71.60;;;;;;4974904;28;20038;-77
2022/03/03 04:08:38;;;;;;;18.08;7.85;;;-2.40;71.70;;;;;;4969144;28;20051;-77
2022/03/03 04:11:03;;;;;;;12.63;7.47;;;-2.40;71.80;;;;;;4968639;28;20035;-77
2022/03/03 04:13:29;;;;;;;14.38;7.50;;;-2.40;71.90;;;;;;4950000;28;20046;-76
2022/03/03 04:15:55;;;;;;;14.70;7.70;;;-2.50;71.90;;;;;;4960660;28;20060;-77
2022/03/03 04:18:20;;;;;;;12.77;7.38;;;-2.50;72.00;;;;;;4953829;28;20038;-76
2022/03/03 04:20:46;;;;;;;12.77;7.60;;;-2.50;72.10;;;;;;4970217;28;20114;-77
2022/03/03 04:23:19;;;;;;;15.82;7.40;;;-2.50;72.10;;;;;;4970382;28;20503;-77
2022/03/03 04:25:45;;;;;;;9.57;6.57;;;-2.60;72.20;;;;;;4968708;28;20074;-77
2022/03/03 04:28:10;;;;;;;16.83;8.05;;;-2.60;72.30;;;;;;4961652;28;20027;-77
2022/03/03 04:30:36;;;;;;;16.05;8.10;;;-2.50;72.40;;;;;;4954025;28;20047;-78
2022/03/03 04:33:01;;;;;;;12.05;7.03;;;-2.50;72.50;;;;;;4968634;28;20043;-77
2022/03/03 04:35:28;;;;;;;15.95;7.95;;;-2.50;72.60;;;;;;4946780;28;20046;-78
2022/03/03 04:37:54;;;;;;;13.25;7.35;;;-2.50;72.60;;;;;;4970699;28;20129;-78
2022/03/03 04:40:19;;;;;;;14.95;7.85;;;-2.50;72.60;;;;;;4977907;28;20381;-77
2022/03/03 04:42:45;;;;;;;15.70;7.97;;;-2.50;72.60;;;;;;4967635;28;20074;-77
2022/03/03 04:45:10;;;;;;;13.80;8.20;;;-2.50;72.70;;;;;;4954054;28;20044;-77
2022/03/03 04:47:36;;;;;;;12.70;8.60;;;-2.40;72.80;;;;;;4968728;28;20051;-77
2022/03/03 04:50:02;;;;;;;15.85;8.30;;;-2.50;72.70;;;;;;4960793;28;20054;-77
2022/03/03 04:52:27;;;;;;;19.63;9.05;;;-2.50;72.80;;;;;;4964314;28;20091;-77
2022/03/03 04:54:53;;;;;;;13.52;8.18;;;-2.50;72.80;;;;;;4963641;28;20039;-78
2022/03/03 04:57:18;;;;;;;18.73;9.27;;;-2.50;72.80;;;;;;4958120;28;20046;-77
2022/03/03 04:59:44;;;;;;;13.40;8.23;;;-2.60;72.80;;;;;;4961264;28;20053;-77
2022/03/03 05:02:10;;;;;;;16.10;8.43;;;-2.60;72.80;;;;;;4951949;28;20047;-77
2022/03/03 05:04:35;;;;;;;18.40;8.77;;;-2.60;72.90;;;;;;4918255;28;20106;-76
2022/03/03 05:07:01;;;;;;;15.82;8.85;;;-2.60;73.00;;;;;;4971548;28;20058;-77
2022/03/03 05:09:26;;;;;;;15.85;8.73;;;-2.60;73.00;;;;;;4981248;28;20038;-75
2022/03/03 05:11:52;;;;;;;13.32;8.68;;;-2.70;73.00;;;;;;4966284;28;20519;-77
2022/03/03 05:14:18;;;;;;;15.15;8.25;;;-2.70;73.10;;;;;;4943951;28;20040;-78
2022/03/03 05:16:43;;;;;;;15.02;8.45;;;-2.70;73.10;;;;;;4962864;28;20031;-78
2022/03/03 05:19:09;;;;;;;14.15;8.23;;;-2.70;73.10;;;;;;4978785;28;20066;-78
2022/03/03 05:21:34;;;;;;;14.60;7.80;;;-2.70;73.10;;;;;;4959902;28;20057;-78
2022/03/03 05:24:00;;;;;;;20.58;7.70;;;-2.70;73.20;;;;;;4968421;28;20107;-78
2022/03/03 05:26:25;;;;;;;14.43;8.02;;;-2.70;73.20;;;;;;4962214;28;20043;-77
2022/03/03 05:28:51;;;;;;;13.93;7.72;;;-2.70;73.40;;;;;;4969435;28;20053;-77
2022/03/03 05:31:17;;;;;;;15.55;8.32;;;-2.80;73.40;;;;;;4966693;28;20034;-78
2022/03/03 05:33:43;;;;;;;13.30;7.55;;;-2.80;73.40;;;;;;4963252;28;20039;-77
2022/03/03 05:36:09;;;;;;;12.70;7.65;;;-2.80;73.50;;;;;;4969300;28;20039;-78
2022/03/03 05:38:34;;;;;;;12.80;6.97;;;-2.80;73.50;;;;;;4967438;28;20043;-77
2022/03/03 05:41:00;;;;;;;16.05;8.10;;;-2.80;74.30;;;;;;4964607;28;20041;-78
2022/03/03 05:43:26;;;;;;;12.63;7.50;;;-2.80;73.60;;;;;;4945404;28;20047;-77
2022/03/03 05:45:52;;;;;;;17.83;8.57;;;-2.80;73.70;;;;;;4935090;28;20043;-76
2022/03/03 05:48:19;;;;;;;13.55;8.27;;;-2.80;73.70;;;;;;4953754;28;20102;-78
2022/03/03 05:50:48;;;;;;;15.65;8.55;;;-2.80;73.70;;;;;;4971873;28;20039;-79
2022/03/03 05:53:13;;;;;;;14.77;7.78;;;-2.90;73.60;;;;;;4966015;28;20218;-78
2022/03/03 05:55:43;;;;;;;14.93;7.90;;;-2.90;73.60;;;;;;4957562;28;20050;-78
2022/03/03 05:58:11;;;;;;;13.88;7.25;;;-2.90;73.80;;;;;;4950056;28;20822;-78
2022/03/03 06:00:36;;;;;;;17.48;8.40;;;-2.90;73.70;;;;;;4941246;28;20472;-79
2022/03/03 06:03:03;;;;;;;13.70;7.13;;;-2.90;73.80;;;;;;4958119;28;20090;-78
2022/03/03 06:05:28;;;;;;;15.02;7.90;;;-2.90;73.80;;;;;;4962634;28;20046;-79
2022/03/03 06:08:00;;;;;;;11.98;7.35;;;-2.90;73.90;;;;;;4944636;28;20043;-79
2022/03/03 06:10:26;;;;;;;13.02;7.05;;;-2.90;74.00;;;;;;4969635;28;20042;-78
2022/03/03 06:13:23;;;;;;;16.13;8.40;;;-2.90;74.00;;;;;;4980309;28;20118;-78
2022/03/03 06:15:48;;;;;;;14.32;7.97;;;-2.90;74.40;;;;;;4978270;28;20043;-78
2022/03/03 06:18:14;;;;;;;16.48;8.25;;;-2.80;74.10;;;;;;4986295;28;20047;-78
2022/03/03 06:20:40;;;;;;;15.80;7.95;;;-2.80;74.10;;;;;;4943008;28;20039;-78
2022/03/03 06:23:05;;;;;;;13.68;8.07;;;-2.80;74.10;;;;;;4937474;28;20093;-77
2022/03/03 06:25:31;;;;;;;14.18;7.70;;;-2.90;74.10;;;;;;4979708;28;20050;-77
2022/03/03 06:27:56;;;;;;;15.30;7.53;;;-2.80;74.20;;;;;;4960080;28;20038;-77
2022/03/03 06:30:22;;;;;;;13.48;7.43;;;-2.90;74.10;;;;;;4943853;28;20062;-78
2022/03/03 06:32:48;;;;;;;15.10;8.38;;;-2.90;74.10;;;;;;4959694;28;20035;-78
2022/03/03 06:35:15;;;;;;;21.90;9.32;;;-2.90;74.20;;;;;;4963499;28;20035;-77
2022/03/03 06:37:41;;;;;;;14.32;7.80;;;-2.90;74.30;;;;;;4964025;28;20031;-77
2022/03/03 06:40:07;;;;;;;14.60;8.65;;;-2.90;74.30;;;;;;4945931;28;20133;-78
2022/03/03 06:42:32;;;;;;;17.30;9.35;;;-2.80;74.40;;;;;;4945399;28;20066;-77
2022/03/03 06:44:58;;;;;;;13.65;8.15;;;-2.80;74.40;;;;;;4955457;28;20031;-79
2022/03/03 06:47:23;;;;;;;18.83;8.40;;;-2.80;74.50;;;;;;4948254;28;20051;-79
2022/03/03 06:49:49;;;;;;;16.55;8.05;;;-2.80;74.50;;;;;;4961440;28;20039;-78
2022/03/03 06:52:15;;;;;;;14.85;6.97;;;-2.80;74.40;;;;;;4975031;28;20041;-79
2022/03/03 06:54:43;;;;;;;17.50;8.30;;;-2.70;74.60;;;;;;4966490;28;20042;-76
2022/03/03 06:57:09;;;;;;;16.08;9.43;;;-2.70;74.70;;;;;;4955032;28;20031;-78
2022/03/03 06:59:34;;;;;;;21.15;11.85;;;-2.60;74.80;;;;;;4984296;28;20051;-76
2022/03/03 07:02:01;;;;;;;25.70;15.02;;;-2.60;74.70;;;;;;4969809;28;20050;-77
2022/03/03 07:04:28;;;;;;;16.50;9.30;;;-2.50;74.80;;;;;;4969659;28;20047;-77
2022/03/03 07:06:54;;;;;;;19.50;9.65;;;-2.50;74.80;;;;;;4968852;28;20054;-78
2022/03/03 07:09:19;;;;;;;37.55;18.17;;;-2.40;74.80;;;;;;4969680;28;20039;-77
2022/03/03 07:11:46;;;;;;;31.25;16.70;;;-2.30;74.90;;;;;;4965922;28;20041;-77
2022/03/03 07:14:12;;;;;;;37.17;18.88;;;-2.30;74.80;;;;;;4964545;28;20068;-77
2022/03/03 07:16:44;;;;;;;26.83;15.38;;;-2.20;74.80;;;;;;4958967;28;20070;-77
2022/03/03 07:19:53;;;;;;;19.70;11.55;;;-2.10;74.90;;;;;;4955194;28;20038;-78
2022/03/03 07:22:20;;;;;;;25.58;12.27;;;-2.00;75.20;;;;;;4949990;28;20110;-77
2022/03/03 07:24:59;;;;;;;19.27;10.77;;;-1.90;74.80;;;;;;4935977;28;20124;-77
2022/03/03 07:27:25;;;;;;;28.02;12.65;;;-1.90;74.80;;;;;;4956495;28;20050;-77
2022/03/03 07:29:54;;;;;;;19.00;11.30;;;-1.80;74.80;;;;;;4945439;29;20137;-78
2022/03/03 07:32:20;;;;;;;23.42;12.70;;;-1.70;74.90;;;;;;4937965;28;20051;-78
2022/03/03 07:34:50;;;;;;;24.65;13.38;;;-1.50;75.00;;;;;;4956291;28;20046;-77
2022/03/03 07:37:16;;;;;;;22.38;11.75;;;-1.50;75.10;;;;;;4936164;28;20178;-78
2022/03/03 07:39:43;;;;;;;26.70;12.43;;;-1.30;75.00;;;;;;4940214;28;20027;-77
2022/03/03 07:42:16;;;;;;;20.65;11.43;;;-1.20;75.10;;;;;;4952156;28;20043;-76
2022/03/03 07:44:41;;;;;;;19.48;10.57;;;-1.10;75.20;;;;;;4940885;29;20083;-78
2022/03/03 07:47:07;;;;;;;20.58;10.07;;;-1.00;75.00;;;;;;4935396;29;20055;-77
2022/03/03 07:49:33;;;;;;;15.82;10.60;;;-0.90;75.10;;;;;;4953202;29;20116;-77
2022/03/03 07:51:58;;;;;;;21.17;11.43;;;-0.80;75.00;;;;;;4954014;28;20036;-75
2022/03/03 07:54:24;;;;;;;22.63;11.88;;;-0.70;75.00;;;;;;4957013;28;20392;-78
2022/03/03 07:56:54;;;;;;;20.67;11.45;;;-0.50;75.00;;;;;;4956128;28;20049;-78
2022/03/03 07:59:20;;;;;;;21.70;12.43;;;-0.40;75.10;;;;;;4956095;28;20046;-78
2022/03/03 08:01:45;;;;;;;24.77;13.10;;;-0.30;75.00;;;;;;4956953;28;20055;-77
2022/03/03 08:04:14;;;;;;;24.27;12.50;;;-0.10;75.00;;;;;;4984982;28;20047;-77
2022/03/03 08:06:39;;;;;;;30.25;12.85;;;0.00;75.10;;;;;;4946553;28;20039;-77
2022/03/03 08:09:05;;;;;;;24.42;12.68;;;0.20;75.20;;;;;;4969124;28;20046;-78
2022/03/03 08:11:30;;;;;;;27.38;13.77;;;0.40;75.20;;;;;;4955567;28;20111;-78
2022/03/03 08:13:56;;;;;;;24.17;12.45;;;0.50;75.10;;;;;;4968497;28;20038;-78
2022/03/03 08:16:22;;;;;;;25.70;13.20;;;0.70;75.10;;;;;;4969472;28;20046;-78
2022/03/03 08:18:47;;;;;;;30.92;14.38;;;0.90;75.20;;;;;;4966121;28;20097;-78
2022/03/03 08:21:14;;;;;;;23.05;12.52;;;1.00;75.10;;;;;;4982575;28;20117;-78
2022/03/03 08:23:40;;;;;;;25.38;13.20;;;1.20;75.00;;;;;;4952157;28;20110;-78
2022/03/03 08:26:06;;;;;;;25.58;13.13;;;1.30;74.80;;;;;;4967699;28;20035;-79
2022/03/03 08:28:32;;;;;;;30.10;13.55;;;1.50;74.70;;;;;;4983472;28;20722;-78
2022/03/03 08:31:04;;;;;;;29.10;14.40;;;1.70;74.50;;;;;;4970441;28;20047;-78
2022/03/03 08:33:40;;;;;;;26.70;11.95;;;1.80;74.40;;;;;;4974003;28;20043;-78
2022/03/03 08:36:26;;;;;;;24.48;12.13;;;2.00;73.90;;;;;;4969524;28;20051;-77
2022/03/03 08:38:52;;;;;;;28.15;11.88;;;2.10;73.60;;;;;;4965507;28;20130;-78
2022/03/03 08:41:22;;;;;;;24.80;11.52;;;2.30;73.50;;;;;;4954022;28;20058;-80
2022/03/03 08:43:50;;;;;;;20.67;10.80;;;2.40;73.70;;;;;;4959811;28;20058;-78
2022/03/03 08:46:16;;;;;;;20.52;10.48;;;2.60;73.80;;;;;;4974599;28;20043;-79
2022/03/03 08:48:41;;;;;;;19.17;10.55;;;2.80;73.60;;;;;;4954568;28;20038;-79
2022/03/03 08:51:07;;;;;;;21.63;10.38;;;3.00;73.30;;;;;;4937015;28;20062;-78
2022/03/03 08:53:32;;;;;;;18.90;11.20;;;3.20;73.10;;;;;;4964453;28;20130;-78
2022/03/03 08:56:00;;;;;;;18.83;10.95;;;3.40;72.80;;;;;;4984291;28;20043;-79
2022/03/03 08:58:26;;;;;;;17.05;9.85;;;3.60;72.30;;;;;;4971486;28;20130;-79
2022/03/03 09:00:52;;;;;;;20.73;9.82;;;3.80;71.90;;;;;;4973943;28;20082;-78
2022/03/03 09:03:21;;;;;;;15.80;9.85;;;3.90;71.60;;;;;;4954015;28;20035;-80
2022/03/03 09:05:47;;;;;;;17.58;9.05;;;4.00;71.60;;;;;;4971454;28;20035;-79
2022/03/03 09:08:13;;;;;;;16.17;9.50;;;4.20;71.70;;;;;;4962106;28;20246;-79
2022/03/03 09:10:39;;;;;;;21.05;10.15;;;4.50;71.80;;;;;;4963918;28;20518;-78
2022/03/03 09:13:04;;;;;;;19.58;10.45;;;4.70;71.60;;;;;;4949055;28;20038;-78
2022/03/03 09:15:30;;;;;;;21.17;9.93;;;4.90;71.20;;;;;;4970516;28;20035;-79
2022/03/03 09:17:56;;;;;;;17.40;9.77;;;5.10;70.50;;;;;;4986212;28;20046;-78
2022/03/03 09:20:22;;;;;;;17.13;10.15;;;5.30;70.00;;;;;;4969411;28;20455;-78
2022/03/03 09:22:47;;;;;;;18.95;9.90;;;5.40;69.90;;;;;;4955129;28;20031;-78
2022/03/03 09:25:13;;;;;;;20.30;9.70;;;5.60;69.80;;;;;;4970610;28;20034;-78
2022/03/03 09:27:39;;;;;;;17.65;9.80;;;5.80;69.40;;;;;;4968827;28;20031;-78
2022/03/03 09:30:05;;;;;;;18.67;10.02;;;6.00;69.00;;;;;;4977084;28;20057;-78
2022/03/03 09:32:30;;;;;;;15.90;9.30;;;6.10;68.40;;;;;;4968383;28;20039;-78
2022/03/03 09:34:56;;;;;;;16.05;9.48;;;6.10;67.80;;;;;;4971907;28;20074;-78
2022/03/03 09:37:22;;;;;;;15.85;9.70;;;6.30;67.70;;;;;;4961993;28;20050;-78
2022/03/03 09:39:49;;;;;;;15.25;9.35;;;6.50;67.40;;;;;;4972447;28;20080;-78
2022/03/03 09:42:15;;;;;;;19.80;10.13;;;6.60;66.80;;;;;;4974621;28;20035;-78
2022/03/03 09:44:40;;;;;;;19.77;10.57;;;6.80;67.20;;;;;;4940545;28;20065;-78
2022/03/03 09:47:06;;;;;;;20.45;10.82;;;7.00;67.00;;;;;;4955496;28;20022;-77
2022/03/03 09:49:31;;;;;;;18.50;9.73;;;7.20;66.60;;;;;;4971959;28;20039;-78
2022/03/03 09:51:57;;;;;;;16.48;9.13;;;7.40;66.00;;;;;;4961930;28;20027;-78
2022/03/03 09:54:23;;;;;;;25.10;10.35;;;7.60;65.90;;;;;;4968823;28;20057;-78
2022/03/03 09:56:48;;;;;;;16.80;9.15;;;7.80;65.60;;;;;;4958640;28;20428;-77
2022/03/03 09:59:14;;;;;;;19.25;9.73;;;7.90;65.00;;;;;;4962861;28;20043;-79
2022/03/03 10:01:39;;;;;;;19.27;9.98;;;8.20;65.20;;;;;;4946847;28;20034;-78
2022/03/03 10:04:15;;;;;;;17.95;10.82;;;8.40;64.80;;;;;;4988337;28;20035;-79
2022/03/03 10:06:41;;;;;;;14.60;8.98;;;8.60;63.90;;;;;;4936798;28;20122;-79
2022/03/03 10:09:07;;;;;;;18.30;9.38;;;8.70;63.70;;;;;;4962311;28;20034;-78
2022/03/03 10:11:35;;;;;;;21.38;10.23;;;8.90;63.80;;;;;;4969804;28;20061;-79
2022/03/03 10:14:00;;;;;;;15.98;9.68;;;9.10;63.50;;;;;;4968825;28;20035;-77
2022/03/03 10:16:29;;;;;;;15.43;9.45;;;9.30;62.90;;;;;;4974386;28;20035;-80
2022/03/03 10:19:03;;;;;;;18.27;9.45;;;9.50;63.50;;;;;;4959314;28;20071;-79
2022/03/03 10:21:29;;;;;;;17.25;8.90;;;9.70;62.50;;;;;;4963138;28;20070;-78
2022/03/03 10:23:54;;;;;;;14.82;9.05;;;10.00;62.50;;;;;;4984441;28;20058;-79
2022/03/03 10:26:20;;;;;;;16.48;8.38;;;10.20;62.10;;;;;;4970930;28;20030;-78
2022/03/03 10:28:49;;;;;;;15.18;9.13;;;10.40;61.50;;;;;;4959990;28;20535;-78
2022/03/03 10:31:20;;;;;;;15.07;8.60;;;10.60;61.10;;;;;;4981618;28;20131;-79
2022/03/03 10:33:47;;;;;;;15.05;9.32;;;10.90;60.80;;;;;;4929993;28;20031;-78
2022/03/03 10:36:19;;;;;;;18.80;10.13;;;11.10;60.60;;;;;;4954065;28;20051;-78
2022/03/03 10:38:55;;;;;;;18.90;9.82;;;11.30;60.10;;;;;;4958641;28;20099;-78
2022/03/03 10:41:41;;;;;;;24.52;11.13;;;11.50;59.70;;;;;;4941116;28;20061;-79
2022/03/03 10:44:20;;;;;;;17.83;10.10;;;11.60;58.80;;;;;;4947327;28;20464;-79
2022/03/03 10:47:12;;;;;;;17.42;10.23;;;11.70;58.10;;;;;;4953843;28;20272;-78
2022/03/03 10:49:38;;;;;;;;;;;11.80;57.50;;;;;;4978786;28;20042;-78
2022/03/03 10:52:19;;;;;;;15.30;8.82;;;12.00;58.50;;;;;;4977090;28;19933;-78
2022/03/03 10:54:55;;;;;;;16.95;10.57;;;12.20;58.30;;;;;;4975878;28;20039;-79
2022/03/03 10:57:45;;;;;;;16.58;10.40;;;12.40;57.60;;;;;;4965852;28;20034;-79
2022/03/03 11:00:18;;;;;;;17.30;10.20;;;12.60;56.70;;;;;;4937605;29;20052;-79
2022/03/03 11:02:46;;;;;;;19.25;10.90;;;12.80;57.30;;;;;;4947734;29;20108;-78
2022/03/03 11:05:12;;;;;;;18.83;10.38;;;12.90;57.40;;;;;;4951655;28;21675;-79
2022/03/03 11:07:43;;;;;;;14.15;9.55;;;13.00;56.10;;;;;;4952044;29;20052;-78
2022/03/03 11:10:13;;;;;;;18.42;10.18;;;13.10;55.70;;;;;;4921388;29;20035;-79
2022/03/03 11:12:43;;;;;;;17.33;9.65;;;13.30;55.60;;;;;;4940990;29;20035;-78
2022/03/03 11:15:09;;;;;;;15.40;9.77;;;13.40;55.10;;;;;;4934128;29;20028;-79
2022/03/03 11:17:35;;;;;;;14.02;8.45;;;13.50;54.90;;;;;;4940572;29;20031;-77
2022/03/03 11:20:00;;;;;;;12.45;8.50;;;13.70;54.40;;;;;;4943092;28;20187;-79
2022/03/03 11:22:27;;;;;;;16.23;9.73;;;13.90;53.80;;;;;;4952997;28;20035;-78
2022/03/03 11:24:52;;;;;;;18.23;9.20;;;14.00;53.30;;;;;;4926159;29;20040;-78
2022/03/03 11:27:18;;;;;;;13.15;8.13;;;14.10;53.30;;;;;;4938358;29;20051;-77
2022/03/03 11:30:15;;;;;;;14.90;8.65;;;14.20;53.00;;;;;;4922495;29;20624;-77
2022/03/03 11:32:41;;;;;;;16.20;9.15;;;14.50;52.00;;;;;;4942711;29;20039;-80
2022/03/03 11:35:08;;;;;;;14.23;8.10;;;14.70;52.50;;;;;;4927098;29;20048;-78
2022/03/03 11:37:46;;;;;;;11.55;7.53;;;14.80;52.00;;;;;;4936664;29;20428;-79
2022/03/03 11:40:14;;;;;;;12.93;7.93;;;14.90;50.70;;;;;;4948576;28;20051;-79
2022/03/03 11:42:50;;;;;;;12.63;7.47;;;15.00;51.20;;;;;;4940474;29;20031;-80
2022/03/03 11:45:16;;;;;;;11.18;7.70;;;15.20;50.80;;;;;;4944075;29;20036;-79
2022/03/03 11:47:45;;;;;;;9.55;6.72;;;15.40;50.80;;;;;;4940879;28;20040;-80
2022/03/03 11:50:16;;;;;;;10.18;6.75;;;15.50;51.20;;;;;;4945274;29;20039;-79
2022/03/03 11:52:43;;;;;;;13.23;8.13;;;15.70;50.00;;;;;;4940776;29;20063;-79
2022/03/03 11:55:24;;;;;;;12.05;7.35;;;15.90;49.90;;;;;;4957608;28;20035;-78
2022/03/03 11:57:51;;;;;;;11.23;7.75;;;16.00;49.80;;;;;;4939221;29;20040;-77
2022/03/03 12:00:18;;;;;;;14.18;9.20;;;16.10;49.50;;;;;;4980488;28;20043;-78
2022/03/03 12:02:53;;;;;;;13.10;7.85;;;16.20;49.10;;;;;;4969033;29;20035;-78
2022/03/03 12:05:42;;;;;;;14.40;8.07;;;16.30;47.20;;;;;;4953692;28;20067;-76
2022/03/03 12:08:11;;;;;;;14.20;8.93;;;16.30;46.90;;;;;;4968745;28;20028;-77
2022/03/03 12:10:37;;;;;;;11.38;8.60;;;16.30;47.40;;;;;;4972768;28;20027;-79
2022/03/03 12:13:21;;;;;;;13.70;8.02;;;16.30;47.30;;;;;;4956802;28;20070;-79
2022/03/03 12:16:25;;;;;;;11.07;7.07;;;16.40;46.30;;;;;;4981079;28;20039;-80
2022/03/03 12:18:56;;;;;;;11.57;7.85;;;16.40;46.80;;;;;;4970262;28;20062;-78
2022/03/03 12:21:35;;;;;;;11.00;7.57;;;16.50;47.30;;;;;;4969832;28;20054;-79
2022/03/03 12:24:32;;;;;;;10.20;7.10;;;16.60;47.00;;;;;;4978059;28;20058;-80
2022/03/03 12:26:59;;;;;;;11.20;6.88;;;16.80;46.60;;;;;;4961967;28;20043;-79
2022/03/03 12:29:49;;;;;;;10.02;7.50;;;17.00;47.20;;;;;;4972202;28;20066;-78
2022/03/03 12:32:42;;;;;;;12.25;7.88;;;17.10;45.30;;;;;;4981508;28;20039;-78
2022/03/03 12:35:21;;;;;;;10.82;7.45;;;17.20;44.50;;;;;;4967065;28;20027;-79
2022/03/03 12:37:47;;;;;;;9.15;6.80;;;17.30;44.40;;;;;;4967353;28;20039;-79